Terminal Aerodrome Forecast
Issued by NWS Cleveland, OH

Home | Current Version | Previous Version | Graphics & Text | Print | Product List | Glossary On
Versions: 1 2 3 4 5 6 7 8 9 10 11 12
000
FTUS41 KCLE 171732
TAFERI
TAF
KERI 171732Z 1718/1818 33008KT P6SM FEW040
     FM172300 05004KT P6SM SKC
     FM180300 15004KT P6SM FEW200
     FM181600 26004KT P6SM FEW035 SCT150=

USA.gov is the U.S. government's official web portal to all federal, state and local government web resources and services.